Time;durP1;ratioP1;P1;durP2;ratioP2;P2;SDS_P1;SDS_P2;PMS_P1;PMS_P2;Temp;Humidity;BMP_temperature;BMP_pressure;BME280_temperature;BME280_humidity;BME280_pressure;Samples;Min_cycle;Max_cycle;Signal;HPM_P1;HPM_P2
2021/11/02 00:00:50;;;;;;;4.30;3.03;;;9.90;99.90;;;;;;5032136;28;20178;-78
2021/11/02 00:03:16;;;;;;;6.00;2.53;;;9.90;99.90;;;;;;5032023;28;20172;-79
2021/11/02 00:05:41;;;;;;;7.75;2.70;;;9.80;99.90;;;;;;5032040;28;20524;-78
2021/11/02 00:08:07;;;;;;;4.18;2.72;;;9.90;99.90;;;;;;5030564;28;20226;-78
2021/11/02 00:10:33;;;;;;;6.90;3.10;;;9.80;99.90;;;;;;5030881;28;20208;-78
2021/11/02 00:12:59;;;;;;;4.35;2.53;;;9.80;99.90;;;;;;5031977;28;20176;-79
2021/11/02 00:15:27;;;;;;;3.95;2.50;;;9.70;99.90;;;;;;5032135;28;20171;-78
2021/11/02 00:17:57;;;;;;;3.72;2.45;;;9.80;99.90;;;;;;5031946;28;20633;-78
2021/11/02 00:20:22;;;;;;;3.55;2.55;;;9.80;99.90;;;;;;5031803;28;20188;-78
2021/11/02 00:22:56;;;;;;;3.92;2.47;;;9.90;99.90;;;;;;5031654;28;20246;-78
2021/11/02 00:25:23;;;;;;;6.97;2.10;;;9.80;99.90;;;;;;5031880;28;20179;-78
2021/11/02 00:27:49;;;;;;;3.20;2.75;;;9.70;99.90;;;;;;5031847;28;20229;-77
2021/11/02 00:30:16;;;;;;;3.85;2.03;;;9.90;99.90;;;;;;5031862;28;20240;-78
2021/11/02 00:32:44;;;;;;;2.22;1.85;;;9.90;99.90;;;;;;5032188;28;20187;-78
2021/11/02 00:35:11;;;;;;;3.95;1.90;;;9.90;99.90;;;;;;5035561;28;20242;-79
2021/11/02 00:37:37;;;;;;;3.20;1.90;;;9.90;99.90;;;;;;5035388;28;20180;-78
2021/11/02 00:40:06;;;;;;;13.35;3.05;;;9.80;99.90;;;;;;5035383;28;20211;-78
2021/11/02 00:42:40;;;;;;;2.55;2.08;;;9.70;99.90;;;;;;5035492;28;20164;-78
2021/11/02 00:45:08;;;;;;;2.78;1.80;;;9.80;99.90;;;;;;5035499;28;20174;-78
2021/11/02 00:47:34;;;;;;;6.90;2.80;;;9.70;99.90;;;;;;5035340;28;20198;-78
2021/11/02 00:50:02;;;;;;;3.25;2.95;;;9.60;99.90;;;;;;5034990;28;20218;-78
2021/11/02 00:52:29;;;;;;;4.93;1.80;;;9.60;99.90;;;;;;5035188;28;20168;-78
2021/11/02 00:54:56;;;;;;;8.93;4.88;;;9.70;99.90;;;;;;5035293;28;20524;-78
2021/11/02 00:57:23;;;;;;;12.93;2.60;;;9.70;99.90;;;;;;5035212;28;20195;-78
2021/11/02 00:59:49;;;;;;;3.03;2.00;;;9.70;99.90;;;;;;5034965;28;20206;-78
2021/11/02 01:02:15;;;;;;;5.65;1.60;;;9.80;99.90;;;;;;5034953;28;20687;-78
2021/11/02 01:04:41;;;;;;;3.45;1.42;;;9.70;99.90;;;;;;5034688;28;20247;-78
2021/11/02 01:07:07;;;;;;;1.80;1.60;;;9.60;99.90;;;;;;5035159;28;20235;-79
2021/11/02 01:09:33;;;;;;;2.35;1.60;;;9.70;99.90;;;;;;5034937;28;20187;-78
2021/11/02 01:11:58;;;;;;;4.10;1.80;;;9.70;99.90;;;;;;5034758;28;20167;-78
2021/11/02 01:14:24;;;;;;;2.90;1.65;;;9.60;99.90;;;;;;5034956;28;20164;-78
2021/11/02 01:16:49;;;;;;;2.28;1.25;;;9.60;99.90;;;;;;5034641;28;20259;-78
2021/11/02 01:19:15;;;;;;;2.00;1.63;;;9.60;99.90;;;;;;5032972;28;20198;-78
2021/11/02 01:21:41;;;;;;;2.92;2.00;;;9.60;99.90;;;;;;5034529;28;20538;-78
2021/11/02 01:24:06;;;;;;;1.60;1.50;;;9.60;99.90;;;;;;5034594;28;20172;-78
2021/11/02 01:26:32;;;;;;;2.00;1.80;;;9.60;99.90;;;;;;5034542;28;20168;-78
2021/11/02 01:28:57;;;;;;;3.97;2.05;;;9.60;99.90;;;;;;5032839;28;20733;-78
2021/11/02 01:31:23;;;;;;;1.80;1.58;;;9.50;99.90;;;;;;5034488;28;20230;-78
2021/11/02 01:33:49;;;;;;;1.85;1.58;;;9.60;99.90;;;;;;5034156;28;20191;-79
2021/11/02 01:36:15;;;;;;;4.13;2.05;;;9.50;99.90;;;;;;5034476;28;20210;-78
2021/11/02 01:38:42;;;;;;;5.07;2.13;;;9.20;99.90;;;;;;5033055;28;20192;-78
2021/11/02 01:41:07;;;;;;;4.75;2.22;;;9.30;99.90;;;;;;5034371;28;20171;-78
2021/11/02 01:43:34;;;;;;;2.85;1.65;;;9.30;99.90;;;;;;5034505;28;20168;-78
2021/11/02 01:46:01;;;;;;;2.10;1.52;;;9.40;99.90;;;;;;5033407;28;20250;-81
2021/11/02 01:48:27;;;;;;;4.20;2.17;;;9.40;99.90;;;;;;5034052;28;20206;-78
2021/11/02 01:50:53;;;;;;;5.43;1.63;;;9.40;99.90;;;;;;5034129;28;20164;-78
2021/11/02 01:53:20;;;;;;;3.63;1.67;;;9.50;99.90;;;;;;5034273;28;20176;-78
2021/11/02 01:55:46;;;;;;;4.95;1.73;;;9.50;99.90;;;;;;5034131;28;20251;-78
2021/11/02 01:58:13;;;;;;;4.80;2.10;;;9.30;99.90;;;;;;5032456;28;20586;-78
2021/11/02 02:00:40;;;;;;;1.95;1.58;;;9.30;99.90;;;;;;5034058;28;20635;-78
2021/11/02 02:03:05;;;;;;;1.92;1.70;;;9.50;99.90;;;;;;5034012;28;20176;-78
2021/11/02 02:06:03;;;;;;;2.38;2.17;;;9.50;99.90;;;;;;5033637;28;20175;-78
2021/11/02 02:08:39;;;;;;;7.15;1.90;;;9.60;99.90;;;;;;5022815;28;20314;-78
2021/11/02 02:11:19;;;;;;;4.22;2.25;;;9.50;99.90;;;;;;5033525;28;20163;-78
2021/11/02 02:13:51;;;;;;;2.05;1.80;;;9.60;99.90;;;;;;5033774;28;20172;-78
2021/11/02 02:16:40;;;;;;;5.38;2.10;;;9.60;99.90;;;;;;5033649;28;20172;-78
2021/11/02 02:19:53;;;;;;;2.28;2.00;;;9.60;99.90;;;;;;5033515;28;20216;-80
2021/11/02 02:22:34;;;;;;;2.95;1.90;;;9.70;99.90;;;;;;5016475;28;20266;-78
2021/11/02 02:25:14;;;;;;;3.63;2.15;;;9.80;99.90;;;;;;5033731;28;20175;-78
2021/11/02 02:27:42;;;;;;;6.18;2.67;;;9.60;99.90;;;;;;5033325;28;20282;-78
2021/11/02 02:30:12;;;;;;;4.45;3.00;;;9.50;99.90;;;;;;5033614;28;20339;-78
2021/11/02 02:32:49;;;;;;;3.42;2.67;;;9.40;99.90;;;;;;5032966;28;20183;-78
2021/11/02 02:35:18;;;;;;;2.88;2.50;;;9.60;99.90;;;;;;5033177;28;20175;-78
2021/11/02 02:37:45;;;;;;;2.83;2.33;;;9.70;99.90;;;;;;5033298;28;20631;-78
2021/11/02 02:40:13;;;;;;;2.47;2.00;;;9.60;99.90;;;;;;5033181;28;20219;-78
2021/11/02 02:42:39;;;;;;;2.63;2.42;;;9.60;99.90;;;;;;5033526;28;20179;-78
2021/11/02 02:45:08;;;;;;;3.35;2.60;;;9.60;99.90;;;;;;5032975;28;20191;-77
2021/11/02 02:47:36;;;;;;;3.75;2.40;;;9.60;99.90;;;;;;5032779;28;20204;-78
2021/11/02 02:50:05;;;;;;;3.25;2.88;;;9.60;99.90;;;;;;5032498;28;20184;-78
2021/11/02 02:52:31;;;;;;;3.20;2.15;;;9.70;99.90;;;;;;5033020;28;20271;-78
2021/11/02 02:54:59;;;;;;;4.65;2.55;;;9.70;99.90;;;;;;5032926;28;20259;-78
2021/11/02 02:57:27;;;;;;;3.42;2.88;;;9.70;99.90;;;;;;5032341;28;20164;-77
2021/11/02 02:59:55;;;;;;;3.72;2.20;;;9.60;99.90;;;;;;5032877;28;20192;-77
2021/11/02 03:02:26;;;;;;;4.90;2.25;;;9.70;99.90;;;;;;5032944;28;20191;-77
2021/11/02 03:04:54;;;;;;;2.72;2.45;;;9.60;99.90;;;;;;5033025;28;20164;-78
2021/11/02 03:07:20;;;;;;;3.78;3.08;;;9.70;99.90;;;;;;5032288;28;20239;-77
2021/11/02 03:09:46;;;;;;;7.15;2.63;;;9.60;99.90;;;;;;5032804;28;20222;-78
2021/11/02 03:12:15;;;;;;;5.68;2.65;;;9.60;99.90;;;;;;5033014;28;20179;-78
2021/11/02 03:17:39;;;;;;;4.53;2.95;;;9.80;99.90;;;;;;5033117;28;20588;-78
2021/11/02 03:47:56;;;;;;;8.98;2.80;;;9.70;99.90;;;;;;5032512;28;20235;-78
2021/11/02 03:56:29;;;;;;;5.32;2.88;;;10.10;99.90;;;;;;5032487;28;20178;-78
2021/11/02 04:23:55;;;;;;;5.38;2.53;;;10.10;99.90;;;;;;5036421;28;20171;-79
2021/11/02 05:10:27;;;;;;;4.70;2.67;;;10.20;99.90;;;;;;5034841;28;20195;-77
2021/11/02 05:58:49;;;;;;;7.53;3.13;;;10.60;99.90;;;;;;5033863;28;20184;-78
2021/11/02 06:01:28;;;;;;;3.63;3.33;;;10.50;99.90;;;;;;5033683;28;20190;-78
2021/11/02 06:07:00;;;;;;;4.22;3.03;;;10.50;99.90;;;;;;5025061;28;20172;-78
2021/11/02 06:09:36;;;;;;;2.88;2.65;;;10.40;99.90;;;;;;5033884;28;20207;-78
2021/11/02 06:29:22;;;;;;;9.45;4.40;;;10.40;99.90;;;;;;5033382;28;20214;-78
2021/11/02 06:31:55;;;;;;;5.68;3.30;;;10.30;99.90;;;;;;5033019;28;20174;-78
2021/11/02 06:39:58;;;;;;;7.57;3.80;;;10.20;99.90;;;;;;5032776;28;20191;-78
2021/11/02 06:48:37;;;;;;;6.15;3.65;;;10.50;99.90;;;;;;5031347;28;20569;-79
2021/11/02 07:18:31;;;;;;;5.90;4.45;;;10.80;99.90;;;;;;5033768;28;20221;-79
2021/11/02 07:21:06;;;;;;;4.85;4.07;;;10.90;99.90;;;;;;5032625;28;20616;-77
2021/11/02 07:23:49;;;;;;;5.78;3.75;;;10.70;99.90;;;;;;5032231;28;20159;-79
2021/11/02 08:45:03;;;;;;;5.75;4.22;;;11.00;99.90;;;;;;5031271;28;20191;-77
2021/11/02 08:49:57;;;;;;;5.88;4.40;;;11.00;99.90;;;;;;5031277;28;20188;-77
2021/11/02 08:52:23;;;;;;;10.82;4.55;;;10.60;99.90;;;;;;5031286;28;20218;-76
2021/11/02 08:54:51;;;;;;;5.72;4.47;;;10.90;99.90;;;;;;5031684;28;20160;-77
2021/11/02 08:57:20;;;;;;;4.10;3.67;;;11.20;99.90;;;;;;5034868;28;20246;-76
2021/11/02 08:59:46;;;;;;;11.20;3.65;;;11.20;99.90;;;;;;5034990;28;20191;-77
2021/11/02 09:02:20;;;;;;;8.88;4.75;;;11.20;99.90;;;;;;5035088;28;20219;-77
2021/11/02 09:04:47;;;;;;;8.57;3.63;;;11.20;99.90;;;;;;5033714;28;20556;-77
2021/11/02 09:07:20;;;;;;;7.80;3.42;;;11.40;99.90;;;;;;5034943;28;20187;-77
2021/11/02 09:09:50;;;;;;;4.10;3.70;;;11.70;99.90;;;;;;5034489;28;20214;-77
2021/11/02 09:12:17;;;;;;;12.52;2.83;;;11.90;99.90;;;;;;5034691;28;20663;-76
2021/11/02 09:14:45;;;;;;;7.65;3.25;;;11.60;99.90;;;;;;5034938;28;20647;-78
2021/11/02 09:17:14;;;;;;;5.57;3.08;;;11.60;99.90;;;;;;5034559;28;20230;-76
2021/11/02 09:19:41;;;;;;;6.93;3.13;;;11.90;99.90;;;;;;5034566;28;20298;-76
2021/11/02 09:22:10;;;;;;;6.18;2.97;;;11.90;99.90;;;;;;5034326;28;20172;-77
2021/11/02 09:24:42;;;;;;;4.07;2.95;;;12.10;99.90;;;;;;5034266;28;20227;-76
2021/11/02 09:27:08;;;;;;;5.65;3.33;;;12.10;99.90;;;;;;5034064;28;20678;-76
2021/11/02 09:29:36;;;;;;;4.15;3.28;;;12.10;99.90;;;;;;5034178;28;20546;-86
2021/11/02 09:32:04;;;;;;;6.70;3.95;;;11.90;99.90;;;;;;5034087;28;20167;-76
2021/11/02 09:34:30;;;;;;;4.68;3.03;;;11.80;99.90;;;;;;5034060;28;20569;-78
2021/11/02 09:37:07;;;;;;;3.90;3.33;;;11.70;99.90;;;;;;5033770;28;20167;-76
2021/11/02 09:39:41;;;;;;;3.03;2.83;;;11.60;99.90;;;;;;5034223;28;20203;-78
2021/11/02 09:42:46;;;;;;;7.43;4.10;;;11.40;99.90;;;;;;5033991;28;20273;-76
2021/11/02 09:45:42;;;;;;;4.25;3.20;;;11.20;99.90;;;;;;4953512;29;20237;-76
2021/11/02 09:48:17;;;;;;;5.15;3.15;;;10.90;99.90;;;;;;5034269;28;20212;-77
2021/11/02 09:51:02;;;;;;;3.83;3.45;;;10.70;99.90;;;;;;5032692;28;20191;-76
2021/11/02 09:53:49;;;;;;;3.53;3.22;;;10.60;99.90;;;;;;5033767;28;20168;-77
2021/11/02 09:56:55;;;;;;;4.03;3.63;;;10.70;99.90;;;;;;5034286;28;20180;-75
2021/11/02 09:59:55;;;;;;;5.68;3.50;;;10.80;99.90;;;;;;5032060;28;20689;-76
2021/11/02 10:02:22;;;;;;;5.90;3.70;;;10.80;99.90;;;;;;5033585;28;20171;-77
2021/11/02 10:05:06;;;;;;;4.25;3.85;;;10.90;99.90;;;;;;5033406;28;20172;-76
2021/11/02 10:08:00;;;;;;;6.53;3.67;;;11.00;99.90;;;;;;5031511;28;20215;-76
2021/11/02 10:10:37;;;;;;;4.00;3.25;;;10.90;99.90;;;;;;5033078;28;20215;-76
2021/11/02 10:13:23;;;;;;;3.90;3.58;;;11.20;99.90;;;;;;5032265;28;20186;-77
2021/11/02 10:16:10;;;;;;;3.92;3.55;;;11.30;99.90;;;;;;5034098;28;20172;-76
2021/11/02 10:18:54;;;;;;;4.97;4.05;;;11.40;99.90;;;;;;5033626;28;20168;-76
2021/11/02 10:21:46;;;;;;;4.72;4.13;;;11.50;99.90;;;;;;5033493;28;20233;-77
2021/11/02 10:24:31;;;;;;;4.93;3.78;;;11.70;99.90;;;;;;5033198;28;20156;-76
2021/11/02 10:27:18;;;;;;;6.93;3.97;;;11.70;99.90;;;;;;5033444;28;20585;-76
2021/11/02 10:30:13;;;;;;;8.52;4.57;;;11.70;99.90;;;;;;5033377;28;20202;-82
2021/11/02 10:32:45;;;;;;;7.82;3.55;;;11.80;99.90;;;;;;5032948;28;20589;-77
2021/11/02 10:35:37;;;;;;;12.05;4.63;;;12.00;99.90;;;;;;5032860;28;20508;-80
2021/11/02 10:38:10;;;;;;;7.40;3.72;;;12.00;99.90;;;;;;5033234;28;20175;-78
2021/11/02 10:40:50;;;;;;;4.22;3.90;;;11.90;99.90;;;;;;5033230;28;20196;-76
2021/11/02 10:43:33;;;;;;;6.57;3.92;;;11.70;99.90;;;;;;5032830;28;20171;-79
2021/11/02 10:46:05;;;;;;;4.88;3.90;;;11.80;99.90;;;;;;5033279;28;20527;-78
2021/11/02 10:48:50;;;;;;;4.07;3.58;;;11.80;99.90;;;;;;5032486;28;20199;-77
2021/11/02 10:51:57;;;;;;;4.75;3.40;;;11.90;99.90;;;;;;5033012;28;20531;-76
2021/11/02 10:54:46;;;;;;;3.85;3.55;;;11.70;99.90;;;;;;5032945;28;20176;-76
2021/11/02 10:57:15;;;;;;;4.78;3.58;;;11.80;99.90;;;;;;5033155;28;20186;-76
2021/11/02 10:59:50;;;;;;;3.85;3.38;;;11.70;99.90;;;;;;5032964;28;20187;-76
2021/11/02 11:02:29;;;;;;;3.22;2.95;;;11.70;99.90;;;;;;5032663;28;20654;-75
2021/11/02 11:05:05;;;;;;;4.18;3.72;;;11.90;99.90;;;;;;5032670;28;20176;-76
2021/11/02 11:07:37;;;;;;;5.85;3.90;;;12.00;99.90;;;;;;5032574;28;20215;-80
2021/11/02 11:10:05;;;;;;;5.03;3.45;;;12.20;99.90;;;;;;5032393;28;20186;-75
2021/11/02 11:12:34;;;;;;;4.95;3.63;;;11.90;99.90;;;;;;5032801;28;20218;-75
2021/11/02 11:15:04;;;;;;;3.10;2.80;;;12.10;99.90;;;;;;5032266;28;20179;-77
2021/11/02 11:17:33;;;;;;;3.97;3.65;;;12.30;99.90;;;;;;5031940;28;20225;-76
2021/11/02 11:20:06;;;;;;;4.22;3.83;;;12.20;99.90;;;;;;5032529;28;20233;-77
2021/11/02 11:22:47;;;;;;;3.33;3.03;;;12.30;99.90;;;;;;5032758;28;20597;-77
2021/11/02 11:25:16;;;;;;;3.10;2.53;;;12.30;99.90;;;;;;5032606;28;20214;-78
2021/11/02 11:27:57;;;;;;;3.40;2.80;;;12.40;99.90;;;;;;5031879;28;20211;-77
2021/11/02 11:30:34;;;;;;;2.92;2.55;;;12.20;99.90;;;;;;5032057;28;20517;-77
2021/11/02 11:33:07;;;;;;;2.85;2.65;;;12.00;99.90;;;;;;5031932;28;20187;-77
2021/11/02 11:35:35;;;;;;;2.47;2.20;;;12.00;99.90;;;;;;5032036;28;20222;-78
2021/11/02 11:38:04;;;;;;;3.33;2.10;;;12.00;99.90;;;;;;5032184;28;20218;-78
2021/11/02 11:40:33;;;;;;;2.50;2.33;;;12.00;99.90;;;;;;5032080;28;20187;-78
2021/11/02 11:43:03;;;;;;;2.95;2.60;;;12.10;99.90;;;;;;5032260;28;20157;-78
2021/11/02 11:45:31;;;;;;;5.55;2.55;;;12.30;99.90;;;;;;5031964;28;20634;-78
2021/11/02 11:48:26;;;;;;;2.05;1.85;;;12.20;99.90;;;;;;5031202;28;20290;-78
2021/11/02 11:50:53;;;;;;;5.82;2.10;;;12.10;99.90;;;;;;5029690;28;20183;-76
2021/11/02 11:53:21;;;;;;;3.00;2.03;;;12.10;99.90;;;;;;5032050;28;20160;-77
2021/11/02 11:56:09;;;;;;;3.05;1.77;;;12.20;99.90;;;;;;5031818;28;20183;-79
2021/11/02 11:58:45;;;;;;;2.45;2.10;;;12.10;99.90;;;;;;5031269;28;20195;-78
2021/11/02 12:01:21;;;;;;;4.60;2.67;;;12.10;99.90;;;;;;5031197;28;20168;-78
2021/11/02 12:03:57;;;;;;;3.22;2.30;;;12.30;99.90;;;;;;5031539;28;20176;-76
2021/11/02 12:06:28;;;;;;;2.95;2.30;;;12.10;99.90;;;;;;5031765;28;20176;-78
2021/11/02 12:09:06;;;;;;;2.80;1.90;;;12.10;99.90;;;;;;5030912;28;20350;-80
2021/11/02 12:11:34;;;;;;;3.17;2.40;;;12.20;99.90;;;;;;5031634;28;20171;-77
2021/11/02 12:14:12;;;;;;;5.88;2.10;;;12.30;99.90;;;;;;5031715;28;20172;-78
2021/11/02 12:16:42;;;;;;;7.07;2.70;;;12.10;99.90;;;;;;5024196;28;20232;-79
2021/11/02 12:19:20;;;;;;;5.95;2.50;;;12.20;99.90;;;;;;5030815;28;20216;-78
2021/11/02 12:22:01;;;;;;;2.67;2.13;;;12.10;99.90;;;;;;5031098;28;20175;-85
2021/11/02 12:24:35;;;;;;;2.92;2.58;;;12.00;99.90;;;;;;5031060;28;20176;-77
2021/11/02 12:27:17;;;;;;;5.55;4.28;;;11.70;99.90;;;;;;5031693;28;20260;-77
2021/11/02 12:29:51;;;;;;;7.30;4.07;;;11.60;99.90;;;;;;5032714;28;20218;-79
2021/11/02 12:32:22;;;;;;;3.65;2.85;;;11.70;99.90;;;;;;5034087;28;20197;-80
2021/11/02 12:35:18;;;;;;;6.57;2.72;;;11.70;99.90;;;;;;5034287;28;20172;-81
2021/11/02 12:38:10;;;;;;;3.75;2.60;;;11.90;99.90;;;;;;5033646;28;20182;-84
2021/11/02 12:40:45;;;;;;;8.90;2.70;;;11.90;99.90;;;;;;5022681;28;20239;-85
2021/11/02 12:43:28;;;;;;;2.67;2.38;;;11.90;99.90;;;;;;5035096;28;20171;-80
2021/11/02 12:45:56;;;;;;;2.67;2.42;;;12.00;99.90;;;;;;5034886;28;20533;-77
2021/11/02 12:48:23;;;;;;;3.53;2.72;;;12.30;99.90;;;;;;5034345;28;20226;-80
2021/11/02 12:50:51;;;;;;;6.55;2.25;;;12.30;99.90;;;;;;5034633;28;20167;-84
2021/11/02 12:53:18;;;;;;;3.20;2.63;;;12.50;99.90;;;;;;5034331;28;20178;-79
2021/11/02 12:55:45;;;;;;;2.63;2.40;;;12.50;99.90;;;;;;5034193;28;20176;-80
2021/11/02 12:58:11;;;;;;;3.42;3.10;;;12.50;99.90;;;;;;5025087;28;20199;-80
2021/11/02 13:00:50;;;;;;;4.38;2.80;;;12.50;99.90;;;;;;5030854;28;20199;-77
2021/11/02 13:03:24;;;;;;;3.10;2.70;;;12.50;99.90;;;;;;5034577;28;20773;-78
2021/11/02 13:06:08;;;;;;;3.88;3.15;;;12.50;99.90;;;;;;5034346;28;20176;-77
2021/11/02 13:08:35;;;;;;;5.85;2.85;;;12.50;99.90;;;;;;5033944;28;20237;-82
2021/11/02 13:11:13;;;;;;;3.15;2.72;;;12.40;99.90;;;;;;5033754;28;20164;-78
2021/11/02 13:14:10;;;;;;;6.50;3.20;;;12.60;99.90;;;;;;5034518;28;20238;-81
2021/11/02 13:16:57;;;;;;;5.65;3.20;;;12.70;99.90;;;;;;5033183;28;20331;-78
2021/11/02 13:19:30;;;;;;;3.72;2.67;;;12.80;99.90;;;;;;5033616;28;20183;-76
2021/11/02 13:22:04;;;;;;;2.83;2.50;;;12.60;99.90;;;;;;5034105;28;20160;-76
2021/11/02 13:24:31;;;;;;;3.60;3.00;;;12.60;99.90;;;;;;5034281;28;20163;-76
2021/11/02 13:26:57;;;;;;;4.57;3.35;;;12.80;99.90;;;;;;5034234;28;20245;-78
2021/11/02 13:29:25;;;;;;;4.00;2.55;;;13.00;99.90;;;;;;5034798;28;20196;-76
2021/11/02 13:31:55;;;;;;;11.35;3.67;;;13.00;99.90;;;;;;5033843;28;20222;-76
2021/11/02 13:34:29;;;;;;;3.50;2.95;;;13.00;99.90;;;;;;5034115;28;20164;-76
2021/11/02 13:37:06;;;;;;;3.38;3.08;;;13.10;99.90;;;;;;5034412;28;20163;-76
2021/11/02 13:39:54;;;;;;;3.28;3.00;;;13.10;99.90;;;;;;5034643;28;20282;-76
2021/11/02 13:42:52;;;;;;;5.28;2.65;;;13.30;99.90;;;;;;5033585;28;20608;-76
2021/11/02 13:45:20;;;;;;;5.00;3.38;;;13.20;99.90;;;;;;5033728;28;20310;-76
2021/11/02 13:47:46;;;;;;;9.57;3.15;;;13.10;99.90;;;;;;5034266;28;20257;-76
2021/11/02 13:50:12;;;;;;;3.25;2.95;;;13.10;99.90;;;;;;5033833;28;20308;-76
2021/11/02 13:52:41;;;;;;;5.90;3.05;;;13.10;99.90;;;;;;5034206;28;20184;-77
2021/11/02 13:55:08;;;;;;;5.60;4.18;;;13.20;99.90;;;;;;5033979;28;20164;-76
2021/11/02 13:57:34;;;;;;;4.75;3.65;;;13.50;99.90;;;;;;5033485;28;20199;-76
2021/11/02 13:59:59;;;;;;;5.25;3.13;;;13.20;99.90;;;;;;5033384;28;20212;-76
2021/11/02 14:02:27;;;;;;;5.00;3.85;;;13.00;99.90;;;;;;5033995;28;20249;-76
2021/11/02 14:04:54;;;;;;;4.00;3.60;;;12.60;99.90;;;;;;5033495;28;20166;-76
2021/11/02 14:07:26;;;;;;;5.50;3.08;;;12.80;99.90;;;;;;5033923;28;20191;-76
2021/11/02 14:09:59;;;;;;;7.50;4.60;;;12.90;99.90;;;;;;5033728;28;20192;-77
2021/11/02 14:12:28;;;;;;;8.65;3.97;;;12.60;99.90;;;;;;5033814;28;20579;-76
2021/11/02 14:15:11;;;;;;;10.10;4.78;;;12.50;99.90;;;;;;5033845;28;20168;-76
2021/11/02 14:17:38;;;;;;;17.15;5.68;;;12.40;99.90;;;;;;5033462;28;20176;-75
2021/11/02 14:20:04;;;;;;;4.18;3.50;;;12.30;99.90;;;;;;5033121;28;20211;-77
2021/11/02 14:22:47;;;;;;;7.00;3.85;;;12.40;99.90;;;;;;5033266;28;20573;-76
2021/11/02 14:25:30;;;;;;;3.90;3.33;;;12.40;99.90;;;;;;5033302;28;20168;-76
2021/11/02 14:27:57;;;;;;;3.80;3.40;;;12.50;99.90;;;;;;5033637;28;20226;-75
2021/11/02 14:30:31;;;;;;;3.70;3.40;;;12.90;99.90;;;;;;5033474;28;20188;-76
2021/11/02 14:33:03;;;;;;;5.63;3.53;;;13.10;99.90;;;;;;5033395;28;20278;-77
2021/11/02 14:35:45;;;;;;;5.00;3.15;;;13.10;99.90;;;;;;5033308;28;20164;-76
2021/11/02 14:38:12;;;;;;;7.63;3.35;;;13.10;99.90;;;;;;5033231;28;20568;-76
2021/11/02 14:40:45;;;;;;;4.20;3.40;;;13.10;99.90;;;;;;5033117;28;20184;-77
2021/11/02 14:43:13;;;;;;;5.00;3.30;;;12.80;99.90;;;;;;5032858;28;20612;-75
2021/11/02 14:45:43;;;;;;;4.20;3.78;;;12.80;99.90;;;;;;5032793;28;20627;-76
2021/11/02 14:48:27;;;;;;;6.70;3.55;;;12.90;99.90;;;;;;5031685;28;20276;-81
2021/11/02 14:50:58;;;;;;;4.60;2.88;;;12.80;99.90;;;;;;5032938;28;20578;-76
2021/11/02 14:53:36;;;;;;;4.82;3.10;;;12.60;99.90;;;;;;5032911;28;20519;-76
2021/11/02 14:56:12;;;;;;;5.30;2.40;;;12.70;99.90;;;;;;5032939;28;20174;-76
2021/11/02 14:58:43;;;;;;;4.35;3.58;;;12.80;99.90;;;;;;5033042;28;20233;-76
2021/11/02 15:01:11;;;;;;;10.18;3.15;;;12.90;99.90;;;;;;5032861;28;20222;-76
2021/11/02 15:03:42;;;;;;;7.20;2.80;;;12.70;99.90;;;;;;5032920;28;20578;-76
2021/11/02 15:06:10;;;;;;;3.05;2.20;;;12.30;99.90;;;;;;5032643;28;20628;-76
2021/11/02 15:08:38;;;;;;;3.67;2.10;;;12.40;99.90;;;;;;5032740;28;20239;-77
2021/11/02 15:11:11;;;;;;;3.22;2.30;;;12.30;99.90;;;;;;5032508;28;20656;-75
2021/11/02 15:13:39;;;;;;;4.47;2.17;;;12.20;99.90;;;;;;5032571;28;20525;-76
2021/11/02 15:16:06;;;;;;;3.20;2.90;;;12.20;99.90;;;;;;5032523;28;20188;-75
2021/11/02 15:18:37;;;;;;;3.13;2.25;;;12.30;99.90;;;;;;5032344;28;20647;-76
2021/11/02 15:21:03;;;;;;;3.35;2.58;;;12.30;99.90;;;;;;5032454;28;20282;-76
2021/11/02 15:23:38;;;;;;;3.58;2.30;;;12.50;99.90;;;;;;5032256;28;20167;-76
2021/11/02 15:26:03;;;;;;;2.88;2.33;;;12.50;99.90;;;;;;5032170;28;20216;-77
2021/11/02 15:28:29;;;;;;;9.77;2.38;;;12.60;99.90;;;;;;5032181;28;20286;-75
2021/11/02 15:31:07;;;;;;;3.30;2.60;;;12.60;99.90;;;;;;5031077;28;20527;-76
2021/11/02 15:33:34;;;;;;;7.22;3.45;;;12.50;99.90;;;;;;5032232;28;20198;-76
2021/11/02 15:36:29;;;;;;;18.98;10.05;;;12.60;99.90;;;;;;5032433;28;20159;-82
2021/11/02 15:38:59;;;;;;;8.70;5.68;;;12.50;99.90;;;;;;5027379;28;20719;-75
2021/11/02 15:41:26;;;;;;;8.93;5.43;;;12.50;99.90;;;;;;5031875;28;20302;-76
2021/11/02 15:44:01;;;;;;;6.60;3.20;;;12.50;99.90;;;;;;5030779;28;20646;-76
2021/11/02 15:46:41;;;;;;;5.00;3.20;;;12.30;99.90;;;;;;5031798;28;20171;-76
2021/11/02 15:49:13;;;;;;;6.80;2.90;;;12.20;99.90;;;;;;5031732;28;20241;-75
2021/11/02 15:51:51;;;;;;;4.15;2.67;;;12.10;99.90;;;;;;5031845;28;20170;-75
2021/11/02 15:54:19;;;;;;;3.67;2.38;;;12.00;99.90;;;;;;5031905;28;20330;-76
2021/11/02 15:56:45;;;;;;;11.30;2.03;;;11.70;99.90;;;;;;5032174;28;20205;-76
2021/11/02 15:59:11;;;;;;;2.42;1.77;;;11.80;99.90;;;;;;5031677;28;20628;-76
2021/11/02 16:01:47;;;;;;;2.40;1.77;;;11.70;99.90;;;;;;5031780;28;20178;-76
2021/11/02 16:04:23;;;;;;;4.15;1.70;;;11.80;99.90;;;;;;5033104;28;20504;-75
2021/11/02 16:06:58;;;;;;;3.83;2.25;;;11.70;99.90;;;;;;5035179;28;20487;-76
2021/11/02 16:09:44;;;;;;;5.07;2.17;;;11.80;99.90;;;;;;5034441;28;20279;-76
2021/11/02 16:12:21;;;;;;;1.73;1.63;;;11.80;99.90;;;;;;5035612;28;20168;-76
2021/11/02 16:14:59;;;;;;;3.45;2.30;;;11.70;99.90;;;;;;5036342;28;20327;-76
2021/11/02 16:17:26;;;;;;;2.72;2.22;;;11.80;99.90;;;;;;5035706;28;20522;-75
2021/11/02 16:19:54;;;;;;;4.90;1.80;;;11.70;99.90;;;;;;5035673;28;20258;-75
2021/11/02 16:22:21;;;;;;;7.75;2.13;;;11.70;99.90;;;;;;5035690;28;20635;-76
2021/11/02 16:25:07;;;;;;;3.22;2.15;;;11.60;99.90;;;;;;5035647;28;20171;-75
2021/11/02 16:27:33;;;;;;;2.63;2.15;;;11.60;99.90;;;;;;5034182;28;20226;-75
2021/11/02 16:30:15;;;;;;;11.65;3.90;;;11.40;99.90;;;;;;5034062;28;20762;-76
2021/11/02 16:32:44;;;;;;;6.95;3.20;;;11.40;99.90;;;;;;5035484;28;20587;-76
2021/11/02 16:35:10;;;;;;;8.45;3.28;;;11.40;99.90;;;;;;5035354;28;20191;-75
2021/11/02 16:37:38;;;;;;;8.80;2.83;;;11.40;99.90;;;;;;5035694;28;20247;-75
2021/11/02 16:40:22;;;;;;;7.15;2.42;;;11.40;99.90;;;;;;5034465;28;20245;-75
2021/11/02 16:43:00;;;;;;;6.60;3.25;;;11.20;99.90;;;;;;5035372;28;20176;-75
2021/11/02 16:45:34;;;;;;;7.57;3.70;;;11.20;99.90;;;;;;5035124;28;20202;-75
2021/11/02 16:48:03;;;;;;;4.45;2.58;;;11.10;99.90;;;;;;5033773;28;20624;-76
2021/11/02 16:50:32;;;;;;;4.63;3.42;;;11.10;99.90;;;;;;5035015;28;20199;-76
2021/11/02 16:53:09;;;;;;;5.95;3.45;;;11.00;99.90;;;;;;5035492;28;20171;-76
2021/11/02 16:55:37;;;;;;;8.57;3.72;;;11.00;99.90;;;;;;5035431;28;20246;-76
2021/11/02 16:58:18;;;;;;;4.72;3.50;;;11.00;99.90;;;;;;5035175;28;20195;-75
2021/11/02 17:00:45;;;;;;;20.55;3.90;;;10.80;99.90;;;;;;5034726;28;20200;-76
2021/11/02 17:03:13;;;;;;;7.07;3.13;;;10.80;99.90;;;;;;5034934;28;20164;-76
2021/11/02 17:05:40;;;;;;;4.65;2.90;;;10.70;99.90;;;;;;5035243;28;20195;-76
2021/11/02 17:08:11;;;;;;;5.88;3.15;;;10.50;99.90;;;;;;5035005;28;20731;-76
2021/11/02 17:10:57;;;;;;;7.00;3.42;;;10.30;99.90;;;;;;5034502;28;20188;-75
2021/11/02 17:13:32;;;;;;;6.38;3.97;;;10.00;99.90;;;;;;5034626;28;20268;-76
2021/11/02 17:15:58;;;;;;;6.65;3.80;;;10.10;99.90;;;;;;5033779;28;20525;-77
2021/11/02 17:18:46;;;;;;;3.85;3.53;;;10.10;99.90;;;;;;5034857;28;20187;-76
2021/11/02 17:21:15;;;;;;;3.60;3.28;;;10.30;99.90;;;;;;5034732;28;20640;-75
2021/11/02 17:23:43;;;;;;;3.75;3.03;;;10.10;99.90;;;;;;5034318;28;20586;-80
2021/11/02 17:26:10;;;;;;;4.55;3.28;;;10.10;99.90;;;;;;5034705;28;20531;-76
2021/11/02 17:28:37;;;;;;;9.35;3.50;;;10.10;99.90;;;;;;5034403;28;20200;-79
2021/11/02 17:31:05;;;;;;;15.73;3.75;;;10.10;99.90;;;;;;5033046;28;20194;-83
2021/11/02 17:33:34;;;;;;;19.10;3.67;;;10.00;99.90;;;;;;5034273;28;20258;-75
2021/11/02 17:36:03;;;;;;;7.55;3.80;;;10.20;99.90;;;;;;5033936;28;20172;-75
2021/11/02 17:38:29;;;;;;;3.25;3.03;;;10.20;99.90;;;;;;5033645;28;20168;-76
2021/11/02 17:40:55;;;;;;;8.88;3.85;;;10.00;99.90;;;;;;5034466;28;20168;-76
2021/11/02 17:43:23;;;;;;;6.18;3.95;;;9.90;99.90;;;;;;5034524;28;20247;-75
2021/11/02 17:45:49;;;;;;;8.65;4.38;;;9.90;99.90;;;;;;5032928;28;20160;-75
2021/11/02 17:48:15;;;;;;;12.35;4.22;;;10.20;99.90;;;;;;5033943;28;20261;-75
2021/11/02 17:50:41;;;;;;;7.20;4.57;;;10.00;99.90;;;;;;5033858;28;20278;-75
2021/11/02 17:53:08;;;;;;;7.40;4.00;;;9.80;99.90;;;;;;5034132;28;20166;-76
2021/11/02 17:55:34;;;;;;;6.30;4.80;;;9.80;99.90;;;;;;5034176;28;20176;-75
2021/11/02 17:58:03;;;;;;;15.27;5.05;;;9.90;99.90;;;;;;5033764;28;20233;-75
2021/11/02 18:00:28;;;;;;;5.00;4.07;;;9.80;99.90;;;;;;5033916;28;20183;-77
2021/11/02 18:02:56;;;;;;;10.68;3.97;;;9.90;99.90;;;;;;5034002;28;20171;-75
2021/11/02 18:05:27;;;;;;;9.98;3.78;;;9.90;99.90;;;;;;5033840;28;20164;-75
2021/11/02 18:07:54;;;;;;;5.90;4.13;;;9.80;99.90;;;;;;5033736;28;20265;-77